Time;durP1;ratioP1;P1;durP2;ratioP2;P2;SDS_P1;SDS_P2;PMS_P1;PMS_P2;Temp;Humidity;BMP_temperature;BMP_pressure;BME280_temperature;BME280_humidity;BME280_pressure;Samples;Min_cycle;Max_cycle;Signal;HPM_P1;HPM_P2
2022/08/30 00:02:43;;;;;;;6.40;4.80;;;;;;;14.63;73.16;98973.96;432291;1271;110561;-41
2022/08/30 00:12:50;;;;;;;8.80;5.00;;;;;;;14.52;73.44;98969.42;432339;1271;108926;-42
2022/08/30 00:22:58;;;;;;;7.60;4.60;;;;;;;14.37;73.48;98969.66;432618;1271;98800;-41
2022/08/30 00:33:06;;;;;;;8.40;4.80;;;;;;;14.21;73.90;98974.92;432243;1270;108866;-39
2022/08/30 00:43:13;;;;;;;7.70;4.90;;;;;;;14.20;74.18;98976.84;432594;1271;99337;-40
2022/08/30 00:53:25;;;;;;;7.80;4.70;;;;;;;14.24;74.30;98977.43;432466;1271;112713;-41
2022/08/30 01:03:33;;;;;;;13.00;4.80;;;;;;;14.14;74.41;98980.61;432590;1271;108460;-41
2022/08/30 01:13:41;;;;;;;12.90;5.80;;;;;;;14.05;74.64;98976.02;432994;1262;99247;-39
2022/08/30 01:23:52;;;;;;;10.40;6.10;;;;;;;13.93;74.77;98980.25;432160;1271;109478;-41
2022/08/30 01:34:00;;;;;;;13.40;5.30;;;;;;;13.79;74.81;98975.58;432143;1271;99952;-42
2022/08/30 01:44:10;;;;;;;11.20;6.20;;;;;;;13.80;75.35;98974.73;432454;1271;112490;-41
2022/08/30 01:54:18;;;;;;;12.30;5.70;;;;;;;13.79;75.39;98977.98;432398;1271;108974;-41
2022/08/30 02:14:32;;;;;;;9.10;5.90;;;;;;;13.71;75.79;98970.02;432005;1271;107813;-41
2022/08/30 02:24:39;;;;;;;16.40;8.70;;;;;;;13.62;75.88;98968.02;432419;1271;98844;-41
2022/08/30 02:34:47;;;;;;;8.40;5.90;;;;;;;13.56;75.99;98959.78;432222;1271;112677;-41
2022/08/30 02:44:55;;;;;;;;;;;;;;;13.51;76.31;98952.70;432814;1271;109122;-40
2022/08/30 02:55:02;;;;;;;9.30;5.80;;;;;;;13.49;76.47;98953.48;432509;1271;99839;-41
2022/08/30 03:05:12;;;;;;;13.30;7.40;;;;;;;13.58;76.88;98952.42;432204;1271;108833;-41
2022/08/30 03:15:20;;;;;;;7.70;5.00;;;;;;;13.65;76.90;98953.34;432524;1271;98817;-41
2022/08/30 03:25:28;;;;;;;10.40;6.30;;;;;;;13.61;76.97;98955.77;432429;1271;111162;-41
2022/08/30 03:35:35;;;;;;;17.40;6.70;;;;;;;13.55;77.06;98953.35;432331;1271;108952;-42
2022/08/30 03:45:43;;;;;;;11.00;7.00;;;;;;;13.45;77.11;98954.12;432376;1271;97991;-42
2022/08/30 03:55:50;;;;;;;8.80;6.40;;;;;;;13.39;77.20;98969.98;432486;1271;109854;-41
2022/08/30 04:05:59;;;;;;;10.10;6.40;;;;;;;13.35;77.37;98973.95;432590;1271;99235;-41
2022/08/30 04:16:06;;;;;;;13.30;6.30;;;;;;;13.48;77.66;98987.82;431913;1271;112499;-43
2022/08/30 04:26:14;;;;;;;38.70;8.30;;;;;;;13.62;77.82;98993.56;432148;1271;108697;-40
2022/08/30 04:36:21;;;;;;;13.80;6.30;;;;;;;13.79;77.92;98995.56;432528;1271;99242;-41
2022/08/30 04:46:29;;;;;;;17.60;8.30;;;;;;;14.05;77.94;99001.06;432366;1270;108948;-40
2022/08/30 04:56:37;;;;;;;13.70;7.70;;;;;;;14.49;78.19;99005.80;432021;1273;99267;-41
2022/08/30 05:06:44;;;;;;;9.80;7.30;;;;;;;15.14;78.45;99006.52;432635;1271;112480;-42
2022/08/30 05:16:51;;;;;;;18.80;8.30;;;;;;;15.61;78.33;99016.98;432497;1271;109057;-41
2022/08/30 05:26:59;;;;;;;32.30;9.20;;;;;;;16.27;78.49;99030.31;432435;1271;99984;-41
2022/08/30 05:37:06;;;;;;;23.10;9.10;;;;;;;16.47;77.95;99041.33;432419;1271;109166;-41
2022/08/30 05:47:14;;;;;;;11.50;7.90;;;;;;;16.35;78.08;99048.52;432542;1271;99237;-40
2022/08/30 05:57:21;;;;;;;12.70;7.50;;;;;;;16.30;78.22;99052.73;432590;1271;112858;-41
2022/08/30 06:07:28;;;;;;;15.00;8.40;;;;;;;16.42;78.19;99050.96;430795;1270;1583140;-41
2022/08/30 06:17:35;;;;;;;12.90;7.20;;;;;;;16.67;78.35;99051.13;432547;1271;99403;-41
2022/08/30 06:27:43;;;;;;;15.10;8.50;;;;;;;17.09;78.30;99044.34;432455;1271;107838;-42
2022/08/30 06:37:50;;;;;;;12.90;9.60;;;;;;;18.09;78.52;99046.59;432446;1271;98049;-42
2022/08/30 06:47:58;;;;;;;13.10;9.70;;;;;;;18.06;77.65;99050.64;432354;1271;112577;-41
2022/08/30 06:58:05;;;;;;;11.60;9.40;;;;;;;17.83;77.53;99051.91;432637;1271;107932;-41
2022/08/30 07:08:12;;;;;;;14.10;9.70;;;;;;;18.00;77.69;99056.84;432593;1271;98021;-41
2022/08/30 07:28:46;;;;;;;10.10;8.80;;;;;;;18.48;77.53;99066.34;432336;1271;99266;-43
2022/08/30 07:38:58;;;;;;;13.50;10.40;;;;;;;18.66;77.10;99075.75;432721;1271;112620;-42
2022/08/30 07:49:06;;;;;;;13.30;9.00;;;;;;;19.02;76.77;99085.53;432484;1271;108783;-42
2022/08/30 07:59:17;;;;;;;18.40;8.40;;;;;;;19.13;76.82;99080.44;432385;1271;99977;-46
2022/08/30 08:09:24;;;;;;;10.10;8.80;;;;;;;19.77;76.78;99083.33;432398;1271;108979;-42
2022/08/30 08:19:31;;;;;;;9.20;8.20;;;;;;;20.59;76.67;99087.77;432195;1270;99247;-42
2022/08/30 08:29:38;;;;;;;8.80;6.20;;;;;;;21.36;75.32;99094.11;432353;1270;112591;-40
2022/08/30 08:39:46;;;;;;;6.50;5.40;;;;;;;21.85;74.39;99098.13;432482;1270;108567;-41
2022/08/30 08:49:59;;;;;;;8.90;7.00;;;;;;;21.34;73.05;99110.16;432591;1270;98847;-41
2022/08/30 09:00:09;;;;;;;5.40;4.80;;;;;;;21.28;73.17;99107.11;432367;1270;108973;-41
2022/08/30 09:10:17;;;;;;;6.80;5.80;;;;;;;22.00;72.98;99111.00;432392;1270;99263;-40
2022/08/30 09:20:48;;;;;;;6.00;5.40;;;;;;;22.38;72.47;99112.72;432460;1270;112451;-39
2022/08/30 09:31:00;;;;;;;5.90;5.40;;;;;;;22.53;71.64;99103.35;432476;1269;109237;-40
2022/08/30 09:41:26;;;;;;;7.10;6.00;;;;;;;22.20;71.24;99106.88;432647;1270;99247;-39
2022/08/30 09:51:45;;;;;;;5.10;4.60;;;;;;;22.29;70.84;99103.40;432260;1270;109049;-40
2022/08/30 10:02:00;;;;;;;6.90;4.20;;;;;;;22.18;70.07;99102.92;432392;1270;99253;-40
2022/08/30 10:12:15;;;;;;;4.10;3.40;;;;;;;22.04;69.64;99095.26;433015;1270;112533;-39
2022/08/30 10:22:26;;;;;;;5.20;4.70;;;;;;;22.56;69.44;99088.34;432412;1270;109204;-40
2022/08/30 10:32:38;;;;;;;5.40;4.50;;;;;;;22.52;68.51;99092.91;432426;1270;100018;-40
2022/08/30 10:42:46;;;;;;;5.10;4.50;;;;;;;22.62;68.67;99085.09;432225;1270;107007;-40
2022/08/30 11:03:35;;;;;;;4.70;4.10;;;;;;;22.82;66.84;99073.98;432266;1270;112475;-41
2022/08/30 11:13:46;;;;;;;4.50;4.10;;;;;;;22.53;66.91;99068.64;432272;1270;109515;-40
2022/08/30 11:23:58;;;;;;;5.00;3.80;;;;;;;22.89;66.63;99061.66;432822;1269;99245;-40
2022/08/30 11:34:06;;;;;;;7.20;4.50;;;;;;;22.35;65.79;99064.27;432372;1270;108856;-41
2022/08/30 11:44:34;;;;;;;4.40;3.30;;;;;;;22.57;66.52;99066.95;432326;1270;99238;-39
2022/08/30 11:54:39;;;;;;;5.00;3.50;;;;;;;23.03;65.62;99059.21;432463;1270;112563;-39
2022/08/30 12:04:44;;;;;;;3.60;3.20;;;;;;;22.63;65.21;99063.51;432627;1270;109140;-39
2022/08/30 12:14:50;;;;;;;6.60;3.50;;;;;;;22.70;65.23;99061.27;432820;1270;99260;-39
2022/08/30 12:35:17;;;;;;;6.40;3.60;;;;;;;22.65;64.07;99029.45;432401;1270;99234;-41
2022/08/30 12:45:25;;;;;;;3.90;3.50;;;;;;;22.69;63.67;99014.33;432456;1270;112548;-40
2022/08/30 12:55:35;;;;;;;5.40;4.30;;;;;;;23.08;63.41;99009.63;432371;1270;108596;-39
2022/08/30 13:05:44;;;;;;;4.00;3.00;;;;;;;23.04;62.58;99000.86;432803;1270;99253;-41
2022/08/30 13:15:55;;;;;;;4.90;4.40;;;;;;;22.78;62.13;98998.48;432551;1270;109013;-41
2022/08/30 13:26:06;;;;;;;13.40;5.60;;;;;;;22.40;62.04;99008.14;432187;1270;97980;-41
2022/08/30 13:36:12;;;;;;;14.90;4.60;;;;;;;21.80;62.36;99007.44;432283;1270;112598;-42
2022/08/30 13:46:21;;;;;;;4.80;4.00;;;;;;;21.80;62.88;99009.30;432288;1269;108754;-40
2022/08/30 14:06:37;;;;;;;5.50;4.30;;;;;;;22.07;61.66;98994.80;432246;1270;109028;-41
2022/08/30 14:17:03;;;;;;;5.70;4.60;;;;;;;22.05;61.57;98987.11;432183;1270;98843;-41
2022/08/30 14:27:11;;;;;;;18.30;5.60;;;;;;;22.32;61.75;98979.10;432445;1270;112529;-41
2022/08/30 14:37:19;;;;;;;4.60;4.30;;;;;;;22.23;61.34;98970.91;432853;1270;107940;-42
2022/08/30 14:47:25;;;;;;;5.00;3.50;;;;;;;21.98;61.19;98972.26;432668;1270;98044;-41
2022/08/30 14:57:36;;;;;;;4.20;3.70;;;;;;;21.63;60.77;98969.12;432421;1270;108827;-41
2022/08/30 15:07:44;;;;;;;9.40;4.30;;;;;;;21.58;61.38;98971.83;433025;1270;99932;-40
2022/08/30 15:17:51;;;;;;;8.50;3.90;;;;;;;21.40;61.61;98970.43;432352;1270;112540;-42
2022/08/30 15:27:58;;;;;;;12.00;3.10;;;;;;;21.38;61.68;98964.93;432301;1270;108891;-44
2022/08/30 15:38:06;;;;;;;3.90;3.60;;;;;;;21.54;61.29;98967.21;432980;1270;98817;-40
2022/08/30 15:48:13;;;;;;;7.70;3.40;;;;;;;21.48;60.94;98963.20;432589;1270;109001;-42
2022/08/30 15:58:20;;;;;;;2.20;2.00;;;;;;;21.42;61.07;98954.52;432572;1270;99273;-41
2022/08/30 16:08:29;;;;;;;4.40;2.40;;;;;;;21.14;60.57;98954.00;432564;1270;112363;-41
2022/08/30 16:18:37;;;;;;;1.80;1.70;;;;;;;20.85;60.97;98952.41;432520;1270;108971;-41
2022/08/30 16:28:45;;;;;;;2.40;2.20;;;;;;;20.64;61.35;98952.95;432749;1270;99270;-41
2022/08/30 16:38:52;;;;;;;4.50;2.20;;;;;;;20.59;61.63;98943.92;432313;1270;109010;-44
2022/08/30 16:59:15;;;;;;;4.20;2.00;;;;;;;20.16;61.88;98942.97;432461;1269;112531;-40
2022/08/30 17:09:22;;;;;;;4.30;1.70;;;;;;;19.74;62.40;98958.24;432168;1270;108845;-40
2022/08/30 17:19:32;;;;;;;5.30;2.50;;;;;;;19.44;63.13;98962.69;432295;1269;99231;-40
2022/08/30 17:29:46;;;;;;;3.90;3.00;;;;;;;19.03;63.68;98973.66;432387;1270;108547;-40
2022/08/30 17:39:53;;;;;;;3.00;2.80;;;;;;;18.72;64.32;98987.20;432334;1270;98046;-40
2022/08/30 17:50:02;;;;;;;4.10;2.10;;;;;;;18.50;65.02;98997.99;432397;1270;112545;-42
2022/08/30 18:00:13;;;;;;;7.30;2.40;;;;;;;18.41;65.75;99005.09;432388;1270;108862;-42
2022/08/30 18:10:20;;;;;;;4.90;2.20;;;;;;;18.20;66.46;99012.46;431330;1270;1513665;-41
2022/08/30 18:30:46;;;;;;;4.30;2.70;;;;;;;17.67;67.48;99037.39;432418;1270;99426;-41
2022/08/30 18:40:57;;;;;;;6.80;2.80;;;;;;;17.42;67.79;99041.02;432291;1270;111039;-41
2022/08/30 18:51:09;;;;;;;5.80;3.90;;;;;;;17.15;68.31;99043.51;432659;1270;108799;-40
2022/08/30 19:01:17;;;;;;;9.00;4.20;;;;;;;16.86;68.72;99046.43;432433;1270;99247;-42
2022/08/30 19:11:28;;;;;;;8.70;4.40;;;;;;;16.52;68.95;99048.30;432354;1270;108904;-40
2022/08/30 19:21:36;;;;;;;8.20;3.90;;;;;;;16.28;69.67;99048.73;432240;1271;99903;-41
2022/08/30 19:31:43;;;;;;;6.60;3.70;;;;;;;16.21;70.12;99042.65;432234;1270;112113;-41
2022/08/30 19:41:51;;;;;;;4.80;3.40;;;;;;;16.13;70.61;99043.02;432561;1270;108532;-42
2022/08/30 19:51:59;;;;;;;9.90;4.30;;;;;;;15.99;71.09;99048.04;432744;1270;98017;-42
2022/08/30 20:02:07;;;;;;;6.80;4.60;;;;;;;15.79;71.28;99047.34;432465;1270;108857;-40
2022/08/30 20:12:14;;;;;;;7.50;4.10;;;;;;;15.70;71.50;99039.36;432174;1270;99276;-42
2022/08/30 20:22:22;;;;;;;9.30;4.90;;;;;;;15.62;71.75;99039.67;432457;1270;112814;-42
2022/08/30 20:42:43;;;;;;;7.00;5.60;;;;;;;15.46;72.29;99034.13;432779;1270;99525;-40
2022/08/30 20:52:50;;;;;;;21.90;8.70;;;;;;;15.32;72.75;99035.54;432787;1270;108886;-41
2022/08/30 21:02:57;;;;;;;13.00;6.10;;;;;;;15.07;72.73;99039.99;432350;1270;99257;-40
2022/08/30 21:13:04;;;;;;;25.30;8.10;;;;;;;14.90;73.05;99048.58;432533;1270;112586;-40
2022/08/30 21:23:12;;;;;;;15.40;8.90;;;;;;;14.73;73.29;99051.30;432385;1270;108985;-40
2022/08/30 21:33:19;;;;;;;21.70;9.50;;;;;;;14.64;73.71;99058.25;432817;1270;98818;-41
2022/08/30 21:43:26;;;;;;;25.80;8.40;;;;;;;14.68;74.06;99064.70;432467;1270;108472;-42
2022/08/30 21:53:34;;;;;;;17.00;7.50;;;;;;;14.77;74.18;99061.61;432273;1270;97983;-41
2022/08/30 22:13:51;;;;;;;12.80;5.30;;;;;;;14.71;74.81;99060.05;432363;1270;109013;-39
2022/08/30 22:34:11;;;;;;;9.50;5.30;;;;;;;14.93;75.50;99040.21;432623;1270;108957;-42
2022/08/30 22:44:17;;;;;;;13.30;5.10;;;;;;;14.87;75.53;99036.77;432425;1270;98883;-41
2022/08/30 22:54:24;;;;;;;11.50;5.90;;;;;;;14.65;75.35;99036.38;432380;1270;112156;-41
2022/08/30 23:04:32;;;;;;;13.10;5.60;;;;;;;14.47;75.39;99037.45;432297;1271;108803;-42
2022/08/30 23:14:39;;;;;;;9.60;5.10;;;;;;;14.34;75.56;99036.61;432379;1271;98880;-41
